Accueil
METAR-TAF:

METAR-TAF

Aéroports :

Aéroport civil d'Amman

Amman, Jordanie

latitude: 31-59N, longitude: 035-59E, altitude: 767 m

Observation

Le bulletin a été fait il y a 37 minutes, à 03:00 UTC
Vent 11 kt de ouest/sud-ouest
Température 20°C
Humidité 83%
Pression 1012 hPa
Visibilité: 5000 m
Nuages épars à une hauteur de 3500 ft
brume sèche

METAR: OJAM 110300Z 24011KT 5000 HZ SCT035 20/17 Q1012 NOSIG

Heure: 06:37 (03:37 UTC)

Prévision

Le bulletin a été fait il y a 5 heures et 34 minutes, à 22:03 UTC
Prévision valable du 11 à 00 UTC au 12 à 06 UTC
Vent 10 kt de ouest
Visibilité: 6000 m
Nuages épars à une hauteur de 3500 ft
Probabilité 30%
du 11 à 00 UTC au 11 à 06 UTC
Visibilité: 4000 m
brume

TAF: OJAM 102203Z 1100/1206 28010KT 6000 SCT035 PROB30 1100/1106 4000 BR

Observations et prévisions météorologiques de plus de 4000 aéroports (messages METAR et TAF).

Les stations disponibles sont représentées par des disques jaunes et rouges sur la carte.

Passer la souris dessus pour voir le nom de la station.

Cliquer dessus pour voir les observations et prévisions météorologiques.

Pour changer de carte: cliquez sur les boutons verts avec une croix noire pour zoomer, sur le bouton vert avec un tiret pour effectuer un zoom arrière, ou sur les flèches vertes pour les cartes adjacentes.


METAR-TAF: